Aviation Digital Data Service (ADDS)

Output produced by METARs form (0544 UTC 19 August 2019)
found at http://www.aviationweather.gov/metar/data/
 
METAR text: ZYHB 190500Z 33004MPS 300V020 9999 BKN020 23/18 Q1011 NOSIG
Conditions at: ZYHB (HARBIN , CN) observed 0500 UTC 19 August 2019
Temperature: 23.0°C (73°F)
Dewpoint: 18.0°C (64°F) [RH = 73%]
Pressure (altimeter): 29.85 inches Hg (1011.0 mb)
Winds: from the NNW (330 degrees) at 9 MPH (8 knots; 4.1 m/s)
Visibility: 6 or more miles (10+ km)
Ceiling: 2000 feet AGL
Clouds: broken clouds at 2000 feet AGL
Weather: no significant weather observed at this time

METAR text: ZYHB 190400Z 35003MPS 300V020 9999 BKN020 22/18 Q1011 NOSIG
Conditions at: ZYHB (HARBIN , CN) observed 0400 UTC 19 August 2019
Temperature: 22.0°C (72°F)
Dewpoint: 18.0°C (64°F) [RH = 78%]
Pressure (altimeter): 29.85 inches Hg (1011.0 mb)
Winds: from the N (350 degrees) at 7 MPH (6 knots; 3.1 m/s)
Visibility: 6 or more miles (10+ km)
Ceiling: 2000 feet AGL
Clouds: broken clouds at 2000 feet AGL
Weather: no significant weather observed at this time

METAR text: ZYHB 190300Z 30003MPS 260V340 9999 FEW010 BKN020 20/18 Q1012 NOSIG
Conditions at: ZYHB (HARBIN , CN) observed 0300 UTC 19 August 2019
Temperature: 20.0°C (68°F)
Dewpoint: 18.0°C (64°F) [RH = 88%]
Pressure (altimeter): 29.88 inches Hg (1012.0 mb)
Winds: from the WNW (300 degrees) at 7 MPH (6 knots; 3.1 m/s)
Visibility: 6 or more miles (10+ km)
Ceiling: 2000 feet AGL
Clouds: few clouds at 1000 feet AGL
broken clouds at 2000 feet AGL
Weather: no significant weather observed at this time

METAR text: ZYHB 190200Z 30003MPS 270V340 9999 BKN020 21/17 Q1011 NOSIG
Conditions at: ZYHB (HARBIN , CN) observed 0200 UTC 19 August 2019
Temperature: 21.0°C (70°F)
Dewpoint: 17.0°C (63°F) [RH = 78%]
Pressure (altimeter): 29.85 inches Hg (1011.0 mb)
Winds: from the WNW (300 degrees) at 7 MPH (6 knots; 3.1 m/s)
Visibility: 6 or more miles (10+ km)
Ceiling: 2000 feet AGL
Clouds: broken clouds at 2000 feet AGL
Weather: no significant weather observed at this time

METAR text: ZYHB 190100Z 35004MPS 310V020 9999 SCT010 BKN020 20/17 Q1011 NOSIG
Conditions at: ZYHB (HARBIN , CN) observed 0100 UTC 19 August 2019
Temperature: 20.0°C (68°F)
Dewpoint: 17.0°C (63°F) [RH = 83%]
Pressure (altimeter): 29.85 inches Hg (1011.0 mb)
Winds: from the N (350 degrees) at 9 MPH (8 knots; 4.1 m/s)
Visibility: 6 or more miles (10+ km)
Ceiling: 2000 feet AGL
Clouds: scattered clouds at 1000 feet AGL
broken clouds at 2000 feet AGL
Weather: no significant weather observed at this time

METAR text: ZYHB 190000Z 32004MPS 260V340 9999 SCT006 BKN020 19/17 Q1011 NOSIG
Conditions at: ZYHB (HARBIN , CN) observed 0000 UTC 19 August 2019
Temperature: 19.0°C (66°F)
Dewpoint: 17.0°C (63°F) [RH = 88%]
Pressure (altimeter): 29.85 inches Hg (1011.0 mb)
Winds: from the NW (320 degrees) at 9 MPH (8 knots; 4.1 m/s)
Visibility: 6 or more miles (10+ km)
Ceiling: 2000 feet AGL
Clouds: scattered clouds at 600 feet AGL
broken clouds at 2000 feet AGL
Weather: no significant weather observed at this time

METAR text: ZYHB 182300Z 33003MPS 260V360 CAVOK 18/17 Q1011 NOSIG
Conditions at: ZYHB (HARBIN , CN) observed 2300 UTC 18 August 2019
Temperature: 18.0°C (64°F)
Dewpoint: 17.0°C (63°F) [RH = 94%]
Pressure (altimeter): 29.85 inches Hg (1011.0 mb)
Winds: from the NNW (330 degrees) at 7 MPH (6 knots; 3.1 m/s)
Visibility: 6 or more miles (10+ km)
Ceiling: ceiling and visibility are OK
Clouds: unknown
Weather: no significant weather observed at this time

METAR text: ZYHB 182200Z 21001MPS CAVOK 16/16 Q1010 NOSIG
Conditions at: ZYHB (HARBIN , CN) observed 2200 UTC 18 August 2019
Temperature: 16.0°C (61°F)
Dewpoint: 16.0°C (61°F) [RH = 100%]
Pressure (altimeter): 29.82 inches Hg (1010.0 mb)
Winds: from the SSW (210 degrees) at 2 MPH (2 knots; 1.0 m/s)
Visibility: 6 or more miles (10+ km)
Ceiling: ceiling and visibility are OK
Clouds: unknown
Weather: no significant weather observed at this time

METAR text: ZYHB 182100Z 00000MPS CAVOK 14/14 Q1010 NOSIG
Conditions at: ZYHB (HARBIN , CN) observed 2100 UTC 18 August 2019
Temperature: 14.0°C (57°F)
Dewpoint: 14.0°C (57°F) [RH = 100%]
Pressure (altimeter): 29.82 inches Hg (1010.0 mb)
Winds: calm
Visibility: 6 or more miles (10+ km)
Ceiling: ceiling and visibility are OK
Clouds: unknown
Weather: no significant weather observed at this time

METAR text: ZYHB 182000Z 27001MPS CAVOK 14/14 Q1009 NOSIG
Conditions at: ZYHB (HARBIN , CN) observed 2000 UTC 18 August 2019
Temperature: 14.0°C (57°F)
Dewpoint: 14.0°C (57°F) [RH = 100%]
Pressure (altimeter): 29.79 inches Hg (1009.0 mb)
Winds: from the W (270 degrees) at 2 MPH (2 knots; 1.0 m/s)
Visibility: 6 or more miles (10+ km)
Ceiling: ceiling and visibility are OK
Clouds: unknown
Weather: no significant weather observed at this time

METAR text: ZYHB 181900Z 20001MPS 8000 NSC 15/15 Q1008 BECMG TL2050 1400
Conditions at: ZYHB (HARBIN , CN) observed 1900 UTC 18 August 2019
Temperature: 15.0°C (59°F)
Dewpoint: 15.0°C (59°F) [RH = 100%]
Pressure (altimeter): 29.76 inches Hg (1008.0 mb)
Winds: from the SSW (200 degrees) at 2 MPH (2 knots; 1.0 m/s)
Visibility: 5 miles ( 8 km)
Ceiling: at least 12,000 feet AGL
Clouds: sky clear below 12,000 feet AGL
Weather: no significant weather observed at this time

METAR text: ZYHB 181800Z 21001MPS 8000 NSC 14/14 Q1008 NOSIG
Conditions at: ZYHB (HARBIN , CN) observed 1800 UTC 18 August 2019
Temperature: 14.0°C (57°F)
Dewpoint: 14.0°C (57°F) [RH = 100%]
Pressure (altimeter): 29.76 inches Hg (1008.0 mb)
Winds: from the SSW (210 degrees) at 2 MPH (2 knots; 1.0 m/s)
Visibility: 5 miles ( 8 km)
Ceiling: at least 12,000 feet AGL
Clouds: sky clear below 12,000 feet AGL
Weather: no significant weather observed at this time

METAR text: ZYHB 181700Z 23001MPS CAVOK 16/16 Q1008 NOSIG
Conditions at: ZYHB (HARBIN , CN) observed 1700 UTC 18 August 2019
Temperature: 16.0°C (61°F)
Dewpoint: 16.0°C (61°F) [RH = 100%]
Pressure (altimeter): 29.76 inches Hg (1008.0 mb)
Winds: from the SW (230 degrees) at 2 MPH (2 knots; 1.0 m/s)
Visibility: 6 or more miles (10+ km)
Ceiling: ceiling and visibility are OK
Clouds: unknown
Weather: no significant weather observed at this time

METAR text: ZYHB 181600Z VRB01MPS CAVOK 16/16 Q1007 NOSIG
Conditions at: ZYHB (HARBIN , CN) observed 1600 UTC 18 August 2019
Temperature: 16.0°C (61°F)
Dewpoint: 16.0°C (61°F) [RH = 100%]
Pressure (altimeter): 29.73 inches Hg (1007.0 mb)
Winds: variable direction winds at 2 MPH (2 knots; 1.0 m/s)
Visibility: 6 or more miles (10+ km)
Ceiling: ceiling and visibility are OK
Clouds: unknown
Weather: no significant weather observed at this time

METAR text: ZYHB 181500Z VRB01MPS CAVOK 16/16 Q1007 NOSIG
Conditions at: ZYHB (HARBIN , CN) observed 1500 UTC 18 August 2019
Temperature: 16.0°C (61°F)
Dewpoint: 16.0°C (61°F) [RH = 100%]
Pressure (altimeter): 29.73 inches Hg (1007.0 mb)
Winds: variable direction winds at 2 MPH (2 knots; 1.0 m/s)
Visibility: 6 or more miles (10+ km)
Ceiling: ceiling and visibility are OK
Clouds: unknown
Weather: no significant weather observed at this time

METAR text: ZYHB 181400Z VRB01MPS CAVOK 17/16 Q1007 NOSIG
Conditions at: ZYHB (HARBIN , CN) observed 1400 UTC 18 August 2019
Temperature: 17.0°C (63°F)
Dewpoint: 16.0°C (61°F) [RH = 94%]
Pressure (altimeter): 29.73 inches Hg (1007.0 mb)
Winds: variable direction winds at 2 MPH (2 knots; 1.0 m/s)
Visibility: 6 or more miles (10+ km)
Ceiling: ceiling and visibility are OK
Clouds: unknown
Weather: no significant weather observed at this time

METAR text: ZYHB 181300Z VRB01MPS CAVOK 18/17 Q1007 NOSIG
Conditions at: ZYHB (HARBIN , CN) observed 1300 UTC 18 August 2019
Temperature: 18.0°C (64°F)
Dewpoint: 17.0°C (63°F) [RH = 94%]
Pressure (altimeter): 29.73 inches Hg (1007.0 mb)
Winds: variable direction winds at 2 MPH (2 knots; 1.0 m/s)
Visibility: 6 or more miles (10+ km)
Ceiling: ceiling and visibility are OK
Clouds: unknown
Weather: no significant weather observed at this time

METAR text: ZYHB 181200Z VRB01MPS CAVOK 18/17 Q1006 NOSIG
Conditions at: ZYHB (HARBIN , CN) observed 1200 UTC 18 August 2019
Temperature: 18.0°C (64°F)
Dewpoint: 17.0°C (63°F) [RH = 94%]
Pressure (altimeter): 29.70 inches Hg (1006.0 mb)
Winds: variable direction winds at 2 MPH (2 knots; 1.0 m/s)
Visibility: 6 or more miles (10+ km)
Ceiling: ceiling and visibility are OK
Clouds: unknown
Weather: no significant weather observed at this time

METAR text: ZYHB 181100Z 00000MPS 9999 FEW040 19/18 Q1005 NOSIG
Conditions at: ZYHB (HARBIN , CN) observed 1100 UTC 18 August 2019
Temperature: 19.0°C (66°F)
Dewpoint: 18.0°C (64°F) [RH = 94%]
Pressure (altimeter): 29.68 inches Hg (1005.0 mb)
Winds: calm
Visibility: 6 or more miles (10+ km)
Ceiling: at least 12,000 feet AGL
Clouds: few clouds at 4000 feet AGL
Weather: no significant weather observed at this time

METAR text: ZYHB 181000Z VRB01MPS 9999 FEW040 21/16 Q1005 NOSIG
Conditions at: ZYHB (HARBIN , CN) observed 1000 UTC 18 August 2019
Temperature: 21.0°C (70°F)
Dewpoint: 16.0°C (61°F) [RH = 73%]
Pressure (altimeter): 29.68 inches Hg (1005.0 mb)
Winds: variable direction winds at 2 MPH (2 knots; 1.0 m/s)
Visibility: 6 or more miles (10+ km)
Ceiling: at least 12,000 feet AGL
Clouds: few clouds at 4000 feet AGL
Weather: no significant weather observed at this time

METAR text: ZYHB 180900Z 28002MPS 250V310 9999 FEW040 22/16 Q1004 NOSIG
Conditions at: ZYHB (HARBIN , CN) observed 0900 UTC 18 August 2019
Temperature: 22.0°C (72°F)
Dewpoint: 16.0°C (61°F) [RH = 69%]
Pressure (altimeter): 29.65 inches Hg (1004.0 mb)
Winds: from the W (280 degrees) at 5 MPH (4 knots; 2.1 m/s)
Visibility: 6 or more miles (10+ km)
Ceiling: at least 12,000 feet AGL
Clouds: few clouds at 4000 feet AGL
Weather: no significant weather observed at this time

METAR text: ZYHB 180800Z 32003MPS 270V360 9999 FEW033 22/16 Q1004 NOSIG
Conditions at: ZYHB (HARBIN , CN) observed 0800 UTC 18 August 2019
Temperature: 22.0°C (72°F)
Dewpoint: 16.0°C (61°F) [RH = 69%]
Pressure (altimeter): 29.65 inches Hg (1004.0 mb)
Winds: from the NW (320 degrees) at 7 MPH (6 knots; 3.1 m/s)
Visibility: 6 or more miles (10+ km)
Ceiling: at least 12,000 feet AGL
Clouds: few clouds at 3300 feet AGL
Weather: no significant weather observed at this time

METAR text: ZYHB 180700Z 32004MPS 270V340 9999 SCT040 23/17 Q1004 NOSIG
Conditions at: ZYHB (HARBIN , CN) observed 0700 UTC 18 August 2019
Temperature: 23.0°C (73°F)
Dewpoint: 17.0°C (63°F) [RH = 69%]
Pressure (altimeter): 29.65 inches Hg (1004.0 mb)
Winds: from the NW (320 degrees) at 9 MPH (8 knots; 4.1 m/s)
Visibility: 6 or more miles (10+ km)
Ceiling: at least 12,000 feet AGL
Clouds: scattered clouds at 4000 feet AGL
Weather: no significant weather observed at this time

METAR text: ZYHB 180600Z 33003MPS 280V360 9999 BKN040 FEW040TCU 22/17 Q1004 NOSIG
Conditions at: ZYHB (HARBIN , CN) observed 0600 UTC 18 August 2019
Temperature: 22.0°C (72°F)
Dewpoint: 17.0°C (63°F) [RH = 73%]
Pressure (altimeter): 29.65 inches Hg (1004.0 mb)
Winds: from the NNW (330 degrees) at 7 MPH (6 knots; 3.1 m/s)
Visibility: 6 or more miles (10+ km)
Ceiling: 4000 feet AGL
Clouds: broken clouds at 4000 feet AGL
few clouds at 4000 feet AGL
Weather: no significant weather observed at this time

METAR text: ZYHB 180500Z 28005MPS 9999 BKN030 21/16 Q1004 NOSIG
Conditions at: ZYHB (HARBIN , CN) observed 0500 UTC 18 August 2019
Temperature: 21.0°C (70°F)
Dewpoint: 16.0°C (61°F) [RH = 73%]
Pressure (altimeter): 29.65 inches Hg (1004.0 mb)
Winds: from the W (280 degrees) at 12 MPH (10 knots; 5.1 m/s)
Visibility: 6 or more miles (10+ km)
Ceiling: 3000 feet AGL
Clouds: broken clouds at 3000 feet AGL
Weather: no significant weather observed at this time

METAR text: ZYHB 180400Z 26005MPS 9999 BKN023 22/16 Q1004 NOSIG
Conditions at: ZYHB (HARBIN , CN) observed 0400 UTC 18 August 2019
Temperature: 22.0°C (72°F)
Dewpoint: 16.0°C (61°F) [RH = 69%]
Pressure (altimeter): 29.65 inches Hg (1004.0 mb)
Winds: from the W (260 degrees) at 12 MPH (10 knots; 5.1 m/s)
Visibility: 6 or more miles (10+ km)
Ceiling: 2300 feet AGL
Clouds: broken clouds at 2300 feet AGL
Weather: no significant weather observed at this time

METAR text: ZYHB 180300Z 26006MPS 9999 BKN023 21/16 Q1003 NOSIG
Conditions at: ZYHB (HARBIN , CN) observed 0300 UTC 18 August 2019
Temperature: 21.0°C (70°F)
Dewpoint: 16.0°C (61°F) [RH = 73%]
Pressure (altimeter): 29.62 inches Hg (1003.0 mb)
Winds: from the W (260 degrees) at 14 MPH (12 knots; 6.2 m/s)
Visibility: 6 or more miles (10+ km)
Ceiling: 2300 feet AGL
Clouds: broken clouds at 2300 feet AGL
Weather: no significant weather observed at this time

METAR text: ZYHB 180200Z 28006MPS 240V310 9999 BKN020 19/16 Q1003 NOSIG
Conditions at: ZYHB (HARBIN , CN) observed 0200 UTC 18 August 2019
Temperature: 19.0°C (66°F)
Dewpoint: 16.0°C (61°F) [RH = 83%]
Pressure (altimeter): 29.62 inches Hg (1003.0 mb)
Winds: from the W (280 degrees) at 14 MPH (12 knots; 6.2 m/s)
Visibility: 6 or more miles (10+ km)
Ceiling: 2000 feet AGL
Clouds: broken clouds at 2000 feet AGL
Weather: no significant weather observed at this time

METAR text: ZYHB 180100Z 28006MPS 240V300 9999 BKN016 19/16 Q1003 NOSIG
Conditions at: ZYHB (HARBIN , CN) observed 0100 UTC 18 August 2019
Temperature: 19.0°C (66°F)
Dewpoint: 16.0°C (61°F) [RH = 83%]
Pressure (altimeter): 29.62 inches Hg (1003.0 mb)
Winds: from the W (280 degrees) at 14 MPH (12 knots; 6.2 m/s)
Visibility: 6 or more miles (10+ km)
Ceiling: 1600 feet AGL
Clouds: broken clouds at 1600 feet AGL
Weather: no significant weather observed at this time

METAR text: ZYHB 180000Z 27006MPS 9999 SCT010 BKN016 18/16 Q1002 NOSIG
Conditions at: ZYHB (HARBIN , CN) observed 0000 UTC 18 August 2019
Temperature: 18.0°C (64°F)
Dewpoint: 16.0°C (61°F) [RH = 88%]
Pressure (altimeter): 29.59 inches Hg (1002.0 mb)
Winds: from the W (270 degrees) at 14 MPH (12 knots; 6.2 m/s)
Visibility: 6 or more miles (10+ km)
Ceiling: 1600 feet AGL
Clouds: scattered clouds at 1000 feet AGL
broken clouds at 1600 feet AGL
Weather: no significant weather observed at this time

METAR text: ZYHB 172300Z 27005MPS 9999 SCT010 BKN033 18/16 Q1001 NOSIG
Conditions at: ZYHB (HARBIN , CN) observed 2300 UTC 17 August 2019
Temperature: 18.0°C (64°F)
Dewpoint: 16.0°C (61°F) [RH = 88%]
Pressure (altimeter): 29.56 inches Hg (1001.0 mb)
Winds: from the W (270 degrees) at 12 MPH (10 knots; 5.1 m/s)
Visibility: 6 or more miles (10+ km)
Ceiling: 3300 feet AGL
Clouds: scattered clouds at 1000 feet AGL
broken clouds at 3300 feet AGL
Weather: no significant weather observed at this time

METAR text: ZYHB 172200Z 27004MPS 9999 SCT010 BKN033 17/16 Q1001 NOSIG
Conditions at: ZYHB (HARBIN , CN) observed 2200 UTC 17 August 2019
Temperature: 17.0°C (63°F)
Dewpoint: 16.0°C (61°F) [RH = 94%]
Pressure (altimeter): 29.56 inches Hg (1001.0 mb)
Winds: from the W (270 degrees) at 9 MPH (8 knots; 4.1 m/s)
Visibility: 6 or more miles (10+ km)
Ceiling: 3300 feet AGL
Clouds: scattered clouds at 1000 feet AGL
broken clouds at 3300 feet AGL
Weather: no significant weather observed at this time

METAR text: ZYHB 172100Z 26004MPS 9999 SCT006 SCT010 OVC030 17/17 Q1000 NOSIG
Conditions at: ZYHB (HARBIN , CN) observed 2100 UTC 17 August 2019
Temperature: 17.0°C (63°F)
Dewpoint: 17.0°C (63°F) [RH = 100%]
Pressure (altimeter): 29.53 inches Hg (1000.0 mb)
Winds: from the W (260 degrees) at 9 MPH (8 knots; 4.1 m/s)
Visibility: 6 or more miles (10+ km)
Ceiling: 3000 feet AGL
Clouds: scattered clouds at 600 feet AGL
scattered clouds at 1000 feet AGL
overcast cloud deck at 3000 feet AGL
Weather: no significant weather observed at this time

METAR text: ZYHB 172000Z 26004MPS 9999 SCT006 OVC030 17/17 Q0999 NOSIG
Conditions at: ZYHB (HARBIN , CN) observed 2000 UTC 17 August 2019
Temperature: 17.0°C (63°F)
Dewpoint: 17.0°C (63°F) [RH = 100%]
Pressure (altimeter): 29.50 inches Hg (999.0 mb)
Winds: from the W (260 degrees) at 9 MPH (8 knots; 4.1 m/s)
Visibility: 6 or more miles (10+ km)
Ceiling: 3000 feet AGL
Clouds: scattered clouds at 600 feet AGL
overcast cloud deck at 3000 feet AGL
Weather: no significant weather observed at this time

METAR text: ZYHB 171900Z 25004MPS 9999 -RA SCT006 SCT010 OVC020 17/17 Q0999 NOSIG
Conditions at: ZYHB (HARBIN , CN) observed 1900 UTC 17 August 2019
Temperature: 17.0°C (63°F)
Dewpoint: 17.0°C (63°F) [RH = 100%]
Pressure (altimeter): 29.50 inches Hg (999.0 mb)
Winds: from the WSW (250 degrees) at 9 MPH (8 knots; 4.1 m/s)
Visibility: 6 or more miles (10+ km)
Ceiling: 2000 feet AGL
Clouds: scattered clouds at 600 feet AGL
scattered clouds at 1000 feet AGL
overcast cloud deck at 2000 feet AGL
Weather: -RA  (light rain)

METAR text: ZYHB 171800Z 25004MPS 9999 -RA SCT006 SCT010 OVC020 17/17 Q0998 NOSIG
Conditions at: ZYHB (HARBIN , CN) observed 1800 UTC 17 August 2019
Temperature: 17.0°C (63°F)
Dewpoint: 17.0°C (63°F) [RH = 100%]
Pressure (altimeter): 29.47 inches Hg (998.0 mb)
Winds: from the WSW (250 degrees) at 9 MPH (8 knots; 4.1 m/s)
Visibility: 6 or more miles (10+ km)
Ceiling: 2000 feet AGL
Clouds: scattered clouds at 600 feet AGL
scattered clouds at 1000 feet AGL
overcast cloud deck at 2000 feet AGL
Weather: -RA  (light rain)

Forecast for: COR
Text: TAF COR ZYHB 190432Z 1906/2006 32003MPS 6000 BKN023 TX22/1906Z TN14/1921Z
Forecast period: 0600 UTC 19 August 2019 to 0600 UTC 20 August 2019
Forecast type: FROM: standard forecast or significant change
Winds: from the NW (320 degrees) at 7 MPH (6 knots; 3.1 m/s)
Visibility: 4 miles (6 km)
Ceiling: 2300 feet AGL
Clouds: broken clouds at 2300 feet AGL
Weather: no significant weather forecast for this period
Text: TEMPO 1906/1912 FEW010CB SCT020 BKN026
Forecast period: 0600 to 1200 UTC 19 August 2019
Forecast type: TEMPORARY: The following changes expected for less than half the time period
Visibility: missing
Ceiling: 2600 feet AGL
Clouds: few clouds at 1000 feet AGL
scattered clouds at 2000 feet AGL
broken clouds at 2600 feet AGL
Weather: no significant weather forecast for this period